Time;durP1;ratioP1;P1;durP2;ratioP2;P2;SDS_P1;SDS_P2;PMS_P1;PMS_P2;Temp;Humidity;BMP_temperature;BMP_pressure;BME280_temperature;BME280_humidity;BME280_pressure;Samples;Min_cycle;Max_cycle;Signal;HPM_P1;HPM_P2
2022/01/05 00:02:09;;;;;;;10.73;10.23;;;3.20;99.90;;;;;;5014231;28;20208;-67
2022/01/05 00:04:35;;;;;;;11.73;11.20;;;3.00;99.90;;;;;;5012039;28;20168;-67
2022/01/05 00:07:02;;;;;;;11.07;10.63;;;2.90;99.90;;;;;;5013084;28;20614;-67
2022/01/05 00:09:28;;;;;;;11.00;10.50;;;2.80;99.90;;;;;;5012608;28;20653;-67
2022/01/05 00:11:54;;;;;;;11.30;10.80;;;2.70;99.90;;;;;;5014245;28;20175;-66
2022/01/05 00:14:20;;;;;;;12.33;11.73;;;2.60;99.90;;;;;;5012090;28;20192;-67
2022/01/05 00:16:46;;;;;;;12.70;11.77;;;2.60;99.90;;;;;;5012953;28;20203;-67
2022/01/05 00:19:11;;;;;;;13.83;13.23;;;2.60;99.90;;;;;;5012710;28;20176;-67
2022/01/05 00:21:38;;;;;;;13.80;12.73;;;2.60;99.90;;;;;;5014230;28;20196;-67
2022/01/05 00:24:04;;;;;;;9.83;9.43;;;2.60;99.90;;;;;;5013871;28;20172;-66
2022/01/05 00:26:30;;;;;;;8.17;7.87;;;2.60;99.90;;;;;;5012552;28;20226;-67
2022/01/05 00:28:56;;;;;;;8.63;8.23;;;2.60;99.90;;;;;;5012700;28;20665;-67
2022/01/05 00:31:21;;;;;;;8.93;8.43;;;2.50;99.90;;;;;;5012311;28;20176;-67
2022/01/05 00:33:47;;;;;;;7.70;7.40;;;2.50;99.90;;;;;;5012425;28;20513;-66
2022/01/05 00:36:13;;;;;;;8.13;7.83;;;2.50;99.90;;;;;;5011998;28;20246;-67
2022/01/05 00:38:38;;;;;;;8.07;7.67;;;2.50;99.90;;;;;;5013634;28;20176;-66
2022/01/05 00:41:04;;;;;;;8.83;8.33;;;2.50;99.90;;;;;;5012036;28;20175;-67
2022/01/05 00:43:30;;;;;;;8.37;7.97;;;2.50;99.90;;;;;;5013294;28;20204;-66
2022/01/05 00:45:57;;;;;;;8.67;8.07;;;2.40;99.90;;;;;;5013631;28;20199;-66
2022/01/05 00:48:22;;;;;;;8.63;8.13;;;2.40;99.90;;;;;;5012499;28;20697;-66
2022/01/05 00:50:48;;;;;;;8.60;8.10;;;2.50;99.90;;;;;;5013169;28;20180;-66
2022/01/05 00:53:14;;;;;;;8.40;7.97;;;2.50;99.90;;;;;;5012974;28;20187;-67
2022/01/05 00:58:07;;;;;;;10.83;9.90;;;2.60;99.90;;;;;;5049785;28;20207;-67
2022/01/05 01:00:33;;;;;;;10.17;9.47;;;2.60;99.90;;;;;;5052827;28;20734;-66
2022/01/05 01:02:58;;;;;;;9.73;9.13;;;2.60;99.90;;;;;;5052145;28;20203;-67
2022/01/05 01:05:24;;;;;;;10.43;9.40;;;2.60;99.90;;;;;;5052453;28;20190;-67
2022/01/05 01:07:50;;;;;;;11.33;10.40;;;2.70;99.90;;;;;;5052446;28;20191;-66
2022/01/05 01:10:16;;;;;;;10.30;9.00;;;2.70;99.90;;;;;;5052498;28;20186;-67
2022/01/05 01:12:41;;;;;;;10.27;9.47;;;2.80;99.90;;;;;;5052076;28;20174;-66
2022/01/05 01:15:09;;;;;;;11.43;10.27;;;2.90;99.90;;;;;;5052279;28;20609;-66
2022/01/05 01:17:35;;;;;;;9.77;9.07;;;2.80;99.90;;;;;;5052268;28;20175;-66
2022/01/05 01:20:02;;;;;;;12.93;9.97;;;2.90;99.90;;;;;;5052216;28;20175;-67
2022/01/05 01:22:30;;;;;;;10.00;9.23;;;2.80;99.90;;;;;;5051601;28;20347;-66
2022/01/05 01:24:55;;;;;;;10.80;9.93;;;2.90;99.90;;;;;;5052109;28;20186;-66
2022/01/05 01:27:21;;;;;;;9.80;9.07;;;2.90;99.90;;;;;;5051618;28;20662;-67
2022/01/05 01:29:46;;;;;;;10.60;9.80;;;2.90;99.90;;;;;;5052096;28;20171;-67
2022/01/05 01:32:12;;;;;;;10.30;9.53;;;2.90;99.90;;;;;;5051550;28;20194;-66
2022/01/05 01:34:38;;;;;;;10.83;10.23;;;2.90;99.90;;;;;;5051952;28;20624;-66
2022/01/05 01:37:03;;;;;;;10.07;9.37;;;2.90;99.90;;;;;;5051681;28;20206;-66
2022/01/05 01:39:29;;;;;;;8.63;8.03;;;3.00;99.90;;;;;;5051802;28;20228;-67
2022/01/05 01:41:55;;;;;;;8.90;8.20;;;3.00;99.90;;;;;;5051251;28;20187;-66
2022/01/05 01:44:20;;;;;;;8.70;8.20;;;3.00;99.90;;;;;;5051829;28;20170;-66
2022/01/05 01:46:46;;;;;;;8.43;8.00;;;2.90;99.90;;;;;;5034033;28;20229;-66
2022/01/05 01:49:12;;;;;;;8.73;8.23;;;2.90;99.90;;;;;;5051422;28;20186;-67
2022/01/05 01:51:37;;;;;;;9.63;8.87;;;2.90;99.90;;;;;;5033750;28;20614;-66
2022/01/05 01:54:04;;;;;;;10.43;9.63;;;2.90;99.90;;;;;;5051118;28;20170;-66
2022/01/05 01:56:33;;;;;;;11.10;10.13;;;2.80;99.90;;;;;;5051580;28;20714;-66
2022/01/05 01:59:00;;;;;;;11.30;10.40;;;2.80;99.90;;;;;;5051398;28;20584;-66
2022/01/05 02:01:26;;;;;;;11.80;10.00;;;2.70;99.90;;;;;;5051233;28;20195;-67
2022/01/05 02:03:52;;;;;;;9.53;8.83;;;2.70;99.90;;;;;;5051311;28;20185;-66
2022/01/05 02:06:18;;;;;;;10.50;9.70;;;2.60;99.90;;;;;;5050789;28;20198;-66
2022/01/05 02:08:44;;;;;;;11.63;10.40;;;2.60;99.90;;;;;;5051138;28;20187;-66
2022/01/05 02:11:11;;;;;;;9.17;8.67;;;2.50;99.90;;;;;;5051580;28;20171;-67
2022/01/05 02:13:37;;;;;;;10.33;9.40;;;2.50;99.90;;;;;;5032829;28;20183;-66
2022/01/05 02:16:03;;;;;;;11.87;10.40;;;2.60;99.90;;;;;;5051355;28;20632;-66
2022/01/05 02:20:59;;;;;;;11.40;10.27;;;2.60;99.90;;;;;;5051452;28;20257;-66
2022/01/05 02:23:24;;;;;;;9.57;8.77;;;2.60;99.90;;;;;;5032883;28;20301;-66
2022/01/05 02:25:50;;;;;;;10.33;9.33;;;2.50;99.90;;;;;;5051403;28;20273;-66
2022/01/05 02:28:15;;;;;;;9.80;9.20;;;2.50;99.90;;;;;;5055329;28;20637;-66
2022/01/05 02:30:42;;;;;;;10.80;9.23;;;2.50;99.90;;;;;;5055359;28;20210;-65
2022/01/05 02:33:08;;;;;;;10.87;9.97;;;2.50;99.90;;;;;;5055035;28;20240;-67
2022/01/05 02:35:34;;;;;;;16.43;10.43;;;2.50;99.90;;;;;;5037380;28;20243;-67
2022/01/05 02:38:00;;;;;;;9.87;9.07;;;2.50;99.90;;;;;;5055252;28;20182;-66
2022/01/05 02:40:26;;;;;;;22.50;8.43;;;2.50;99.90;;;;;;5055390;28;20179;-67
2022/01/05 02:42:54;;;;;;;9.73;8.80;;;2.50;99.90;;;;;;5054608;28;20214;-66
2022/01/05 02:45:19;;;;;;;9.27;8.37;;;2.40;99.90;;;;;;5037017;28;20202;-65
2022/01/05 02:47:45;;;;;;;10.03;9.47;;;2.40;99.90;;;;;;5055616;28;20198;-67
2022/01/05 02:50:13;;;;;;;9.30;8.60;;;2.40;99.90;;;;;;5054789;28;20265;-67
2022/01/05 02:52:39;;;;;;;8.63;8.03;;;2.40;99.90;;;;;;5055126;28;20258;-66
2022/01/05 02:55:06;;;;;;;8.87;8.37;;;2.40;99.90;;;;;;5054731;28;20198;-67
2022/01/05 02:57:31;;;;;;;9.60;8.80;;;2.40;99.90;;;;;;5036932;28;20202;-67
2022/01/05 02:59:57;;;;;;;14.93;9.10;;;2.40;99.90;;;;;;5054940;28;20655;-66
2022/01/05 03:02:23;;;;;;;12.23;10.00;;;2.40;99.90;;;;;;5054337;28;20241;-67
2022/01/05 03:04:49;;;;;;;9.33;8.83;;;2.40;99.90;;;;;;5054595;28;20652;-66
2022/01/05 03:07:16;;;;;;;13.63;8.93;;;2.30;99.90;;;;;;5054136;28;20248;-66
2022/01/05 03:09:43;;;;;;;9.10;8.47;;;2.30;99.90;;;;;;5054723;28;20174;-66
2022/01/05 03:12:09;;;;;;;8.90;8.50;;;2.30;99.90;;;;;;5054429;28;20258;-65
2022/01/05 03:14:34;;;;;;;10.20;9.67;;;2.30;99.90;;;;;;5054338;28;20237;-64
2022/01/05 03:17:00;;;;;;;9.07;8.57;;;2.20;99.90;;;;;;5055175;28;20171;-66
2022/01/05 03:19:25;;;;;;;9.37;8.60;;;2.20;99.90;;;;;;5054856;28;20210;-66
2022/01/05 03:21:51;;;;;;;10.30;9.37;;;2.20;99.90;;;;;;5054577;28;20209;-65
2022/01/05 03:24:17;;;;;;;9.07;8.40;;;2.20;99.90;;;;;;5053920;28;20221;-66
2022/01/05 03:26:42;;;;;;;9.90;9.13;;;2.20;99.90;;;;;;5054544;28;20643;-66
2022/01/05 03:29:08;;;;;;;9.73;9.03;;;2.10;99.90;;;;;;5054187;28;20175;-66
2022/01/05 03:31:33;;;;;;;10.17;9.27;;;2.10;99.90;;;;;;5054352;28;20179;-66
2022/01/05 03:34:00;;;;;;;14.53;10.90;;;2.10;99.90;;;;;;5053709;28;20237;-67
2022/01/05 03:36:26;;;;;;;9.07;8.57;;;2.10;99.90;;;;;;5054277;28;20613;-67
2022/01/05 03:38:51;;;;;;;17.37;9.83;;;2.00;99.90;;;;;;5053841;28;20675;-67
2022/01/05 03:41:17;;;;;;;9.53;8.93;;;2.00;99.90;;;;;;5036145;28;20179;-67
2022/01/05 03:43:43;;;;;;;7.80;7.50;;;2.00;99.90;;;;;;5053458;28;20201;-66
2022/01/05 03:46:09;;;;;;;9.20;8.50;;;2.00;99.90;;;;;;5053899;28;20558;-68
2022/01/05 03:48:34;;;;;;;9.23;8.63;;;2.00;99.90;;;;;;5053964;28;20318;-68
2022/01/05 03:51:00;;;;;;;12.00;9.67;;;1.90;99.90;;;;;;5053913;28;20178;-67
2022/01/05 03:53:25;;;;;;;10.50;9.70;;;1.90;99.90;;;;;;5053487;28;20183;-67
2022/01/05 03:55:51;;;;;;;9.90;9.27;;;1.90;99.90;;;;;;5053362;28;20209;-66
2022/01/05 03:58:17;;;;;;;9.27;8.77;;;1.90;99.90;;;;;;5035824;28;20541;-68
2022/01/05 04:00:49;;;;;;;9.93;9.17;;;1.90;99.90;;;;;;5053787;28;20175;-68
2022/01/05 04:03:15;;;;;;;9.93;9.23;;;1.90;99.90;;;;;;5053004;28;20569;-66
2022/01/05 04:05:41;;;;;;;8.77;8.17;;;1.90;99.90;;;;;;5053230;28;20205;-67
2022/01/05 04:08:07;;;;;;;14.40;9.07;;;1.80;99.90;;;;;;5053491;28;20175;-69
2022/01/05 04:10:33;;;;;;;9.67;8.97;;;1.80;99.90;;;;;;5053635;28;20171;-67
2022/01/05 04:12:59;;;;;;;8.57;8.07;;;1.80;99.90;;;;;;5053016;28;20179;-67
2022/01/05 04:15:25;;;;;;;9.93;9.03;;;1.80;99.90;;;;;;5035448;28;20611;-68
2022/01/05 04:17:50;;;;;;;8.17;7.77;;;1.80;99.90;;;;;;5053086;28;20186;-68
2022/01/05 04:20:16;;;;;;;8.27;7.87;;;1.70;99.90;;;;;;5035379;28;20187;-68
2022/01/05 04:22:42;;;;;;;8.90;8.17;;;1.70;99.90;;;;;;5052869;28;20210;-68
2022/01/05 04:25:09;;;;;;;8.57;8.10;;;1.70;99.90;;;;;;5053157;28;20202;-69
2022/01/05 04:27:34;;;;;;;12.63;11.57;;;1.70;99.90;;;;;;5052943;28;20179;-68
2022/01/05 04:30:00;;;;;;;9.43;8.83;;;1.70;99.90;;;;;;5052926;28;20198;-66
2022/01/05 04:32:26;;;;;;;10.97;9.90;;;1.70;99.90;;;;;;5052983;28;20202;-66
2022/01/05 04:34:52;;;;;;;8.20;7.70;;;1.70;99.90;;;;;;5052817;28;20702;-66
2022/01/05 04:37:19;;;;;;;10.00;9.00;;;1.70;99.90;;;;;;5052988;28;20175;-65
2022/01/05 04:39:45;;;;;;;9.40;8.77;;;1.70;99.90;;;;;;5052994;28;20187;-65
2022/01/05 04:42:11;;;;;;;8.60;7.93;;;1.70;99.90;;;;;;5052628;28;20197;-66
2022/01/05 04:44:37;;;;;;;8.60;8.10;;;1.70;99.90;;;;;;5052934;28;20545;-67
2022/01/05 04:47:03;;;;;;;9.47;8.77;;;1.70;99.90;;;;;;5052658;28;20273;-67
2022/01/05 04:49:29;;;;;;;21.67;9.37;;;1.60;99.90;;;;;;5052635;28;20250;-64
2022/01/05 04:51:54;;;;;;;13.00;8.67;;;1.60;99.90;;;;;;5052687;28;20218;-65
2022/01/05 04:54:20;;;;;;;15.87;9.63;;;1.60;99.90;;;;;;5052810;28;20261;-65
2022/01/05 04:56:46;;;;;;;17.73;10.10;;;1.60;99.90;;;;;;5052236;28;20582;-65
2022/01/05 04:59:11;;;;;;;17.23;9.77;;;1.50;99.90;;;;;;5052313;28;20191;-66
2022/01/05 05:01:37;;;;;;;8.33;7.93;;;1.50;99.90;;;;;;5034655;28;20210;-68
2022/01/05 05:04:03;;;;;;;9.07;8.40;;;1.50;99.90;;;;;;5052026;28;20174;-66
2022/01/05 05:06:29;;;;;;;11.40;10.40;;;1.50;99.90;;;;;;5052470;28;20260;-66
2022/01/05 05:08:54;;;;;;;9.17;8.40;;;1.50;99.90;;;;;;5052205;28;20171;-66
2022/01/05 05:11:20;;;;;;;9.50;9.00;;;1.50;99.90;;;;;;5052720;28;20175;-66
2022/01/05 05:13:46;;;;;;;9.13;8.67;;;1.50;99.90;;;;;;5051877;28;20400;-67
2022/01/05 05:16:11;;;;;;;9.37;8.77;;;1.50;99.90;;;;;;5052232;28;20285;-66
2022/01/05 05:18:37;;;;;;;9.80;9.10;;;1.50;99.90;;;;;;5052334;28;20178;-66
2022/01/05 05:21:03;;;;;;;10.37;8.50;;;1.50;99.90;;;;;;5052485;28;20171;-66
2022/01/05 05:23:29;;;;;;;23.00;9.80;;;1.50;99.90;;;;;;5051630;28;20225;-65
2022/01/05 05:25:55;;;;;;;15.53;10.97;;;1.50;99.90;;;;;;5052001;28;20652;-65
2022/01/05 05:28:20;;;;;;;9.90;9.13;;;1.50;99.90;;;;;;5051646;28;20179;-65
2022/01/05 05:30:46;;;;;;;11.77;10.53;;;1.50;99.90;;;;;;5052106;28;20185;-66
2022/01/05 05:33:11;;;;;;;18.30;9.30;;;1.50;99.90;;;;;;5051503;28;20190;-66
2022/01/05 05:35:39;;;;;;;9.13;8.40;;;1.40;99.90;;;;;;5052059;28;20209;-66
2022/01/05 05:38:05;;;;;;;8.43;8.03;;;1.40;99.90;;;;;;5033935;28;20182;-65
2022/01/05 05:40:31;;;;;;;9.93;8.93;;;1.40;99.90;;;;;;5052143;28;20179;-65
2022/01/05 05:42:56;;;;;;;9.10;8.57;;;1.40;99.90;;;;;;5033502;28;20298;-65
2022/01/05 05:45:22;;;;;;;13.27;10.77;;;1.40;99.90;;;;;;5051974;28;20212;-66
2022/01/05 05:47:47;;;;;;;20.27;10.57;;;1.40;99.90;;;;;;5051552;28;20591;-66
2022/01/05 05:50:13;;;;;;;23.43;9.50;;;1.40;99.90;;;;;;5052167;28;20175;-66
2022/01/05 05:52:39;;;;;;;10.30;9.03;;;1.30;99.90;;;;;;5051386;28;20188;-67
2022/01/05 05:55:05;;;;;;;10.50;9.80;;;1.30;99.90;;;;;;5051442;28;20230;-66
2022/01/05 05:57:30;;;;;;;9.17;8.67;;;1.30;99.90;;;;;;5051960;28;20202;-66
2022/01/05 05:59:56;;;;;;;9.90;9.40;;;1.40;99.90;;;;;;5051420;28;20167;-66
2022/01/05 06:02:22;;;;;;;9.83;9.40;;;1.40;99.90;;;;;;5050345;28;20195;-66
2022/01/05 06:04:47;;;;;;;11.07;10.47;;;1.40;99.90;;;;;;5051625;28;20519;-66
2022/01/05 06:07:13;;;;;;;11.13;10.60;;;1.40;99.90;;;;;;5051242;28;20175;-66
2022/01/05 06:09:38;;;;;;;9.70;9.10;;;1.50;99.90;;;;;;5051548;28;20246;-66
2022/01/05 06:12:05;;;;;;;9.57;9.07;;;1.60;99.90;;;;;;5050890;28;20166;-65
2022/01/05 06:14:30;;;;;;;9.40;8.70;;;1.60;99.90;;;;;;5051514;28;20636;-66
2022/01/05 06:16:56;;;;;;;8.20;7.60;;;1.70;99.90;;;;;;5051262;28;20205;-65
2022/01/05 06:19:22;;;;;;;8.50;7.73;;;1.80;99.90;;;;;;5033549;28;20202;-66
2022/01/05 06:21:50;;;;;;;10.13;8.60;;;1.80;99.90;;;;;;5051363;28;20778;-66
2022/01/05 06:24:16;;;;;;;8.13;7.63;;;1.80;99.90;;;;;;5050990;28;20173;-64
2022/01/05 06:26:42;;;;;;;8.30;7.80;;;1.80;99.90;;;;;;5051376;28;20195;-66
2022/01/05 06:29:08;;;;;;;8.67;7.90;;;1.80;99.90;;;;;;5051099;28;20550;-66
2022/01/05 06:31:34;;;;;;;7.97;7.50;;;1.90;99.90;;;;;;5051281;28;20171;-66
2022/01/05 06:34:00;;;;;;;11.50;10.93;;;2.00;99.90;;;;;;5051068;28;20758;-66
2022/01/05 06:36:25;;;;;;;9.57;8.63;;;2.10;99.90;;;;;;5051330;28;20262;-65
2022/01/05 06:38:51;;;;;;;8.43;7.83;;;2.10;99.90;;;;;;5051153;28;20647;-66
2022/01/05 06:41:17;;;;;;;9.33;8.40;;;2.20;99.90;;;;;;5050925;28;20201;-66
2022/01/05 06:43:42;;;;;;;7.87;7.37;;;2.30;99.90;;;;;;5050788;28;20209;-66
2022/01/05 06:46:08;;;;;;;9.80;9.03;;;2.30;99.90;;;;;;5050837;28;20198;-67
2022/01/05 06:48:33;;;;;;;14.90;9.30;;;2.30;99.90;;;;;;5051482;28;20186;-67
2022/01/05 06:50:59;;;;;;;10.50;9.10;;;2.40;99.90;;;;;;5033288;28;20210;-65
2022/01/05 06:53:25;;;;;;;9.17;8.67;;;2.40;99.90;;;;;;5050931;28;20182;-66
2022/01/05 06:55:50;;;;;;;9.63;9.03;;;2.40;99.90;;;;;;5050976;28;20245;-67
2022/01/05 06:58:16;;;;;;;10.33;9.63;;;2.40;99.90;;;;;;5051569;28;20277;-67
2022/01/05 07:00:41;;;;;;;11.07;9.03;;;2.40;99.90;;;;;;5051143;28;20624;-66
2022/01/05 07:03:07;;;;;;;8.00;7.50;;;2.40;99.90;;;;;;5050315;28;20211;-66
2022/01/05 07:05:33;;;;;;;7.80;7.37;;;2.50;99.90;;;;;;5050928;28;20186;-67
2022/01/05 07:07:58;;;;;;;7.70;7.30;;;2.50;99.90;;;;;;5049870;28;20179;-67
2022/01/05 07:10:24;;;;;;;8.57;8.10;;;2.50;99.90;;;;;;5050796;28;20225;-67
2022/01/05 07:12:50;;;;;;;8.10;7.60;;;2.50;99.90;;;;;;5052413;28;20175;-66
2022/01/05 07:15:16;;;;;;;10.07;9.47;;;2.60;99.90;;;;;;5054297;28;20221;-66
2022/01/05 07:17:42;;;;;;;10.23;8.53;;;2.60;99.90;;;;;;5054584;28;20174;-67
2022/01/05 07:20:09;;;;;;;21.00;9.47;;;2.60;99.90;;;;;;5045877;28;20206;-66
2022/01/05 07:22:36;;;;;;;11.77;10.80;;;2.60;99.90;;;;;;5054338;28;20608;-67
2022/01/05 07:25:02;;;;;;;16.43;10.63;;;2.60;99.90;;;;;;5055148;28;20187;-65
2022/01/05 07:27:28;;;;;;;11.97;11.17;;;2.60;99.90;;;;;;5054152;28;20179;-66
2022/01/05 07:29:54;;;;;;;10.73;8.20;;;2.60;99.90;;;;;;5054129;28;20167;-66
2022/01/05 07:32:20;;;;;;;11.53;8.53;;;2.60;99.90;;;;;;5053374;28;20596;-66
2022/01/05 07:34:45;;;;;;;9.47;8.77;;;2.60;99.90;;;;;;5054158;28;20253;-67
2022/01/05 07:37:11;;;;;;;17.10;8.97;;;2.70;99.90;;;;;;5053581;28;20201;-66
2022/01/05 07:39:37;;;;;;;11.60;9.50;;;2.70;99.90;;;;;;5053879;28;20640;-66
2022/01/05 07:42:03;;;;;;;9.60;8.90;;;2.70;99.90;;;;;;5053673;28;20230;-66
2022/01/05 07:44:29;;;;;;;11.37;9.40;;;2.70;99.90;;;;;;5036109;28;20612;-67
2022/01/05 07:46:55;;;;;;;11.70;10.90;;;2.70;99.90;;;;;;5053843;28;20210;-66
2022/01/05 07:49:20;;;;;;;11.60;9.43;;;2.70;99.90;;;;;;5053603;28;20597;-65
2022/01/05 07:51:46;;;;;;;12.50;11.73;;;2.80;99.90;;;;;;5053752;28;20576;-67
2022/01/05 07:54:12;;;;;;;9.20;8.43;;;2.80;99.90;;;;;;5053549;28;20198;-66
2022/01/05 07:56:37;;;;;;;9.10;8.37;;;2.80;99.90;;;;;;5053567;28;20210;-66
2022/01/05 07:59:03;;;;;;;11.47;10.40;;;2.90;99.90;;;;;;5053663;28;20205;-66
2022/01/05 08:01:29;;;;;;;10.40;9.67;;;2.90;99.90;;;;;;5053447;28;20190;-65
2022/01/05 08:03:55;;;;;;;9.17;8.73;;;3.00;99.90;;;;;;5053072;28;20175;-66
2022/01/05 08:06:21;;;;;;;8.53;7.73;;;2.90;99.90;;;;;;5052584;28;20272;-66
2022/01/05 08:08:47;;;;;;;9.63;8.90;;;2.90;99.90;;;;;;5053358;28;20178;-65
2022/01/05 08:11:13;;;;;;;10.27;8.83;;;3.00;99.90;;;;;;5035598;28;20592;-67
2022/01/05 08:13:39;;;;;;;9.63;8.73;;;3.00;99.90;;;;;;5052882;28;20640;-65
2022/01/05 08:16:05;;;;;;;11.03;9.70;;;3.00;99.90;;;;;;5053078;28;20198;-66
2022/01/05 08:18:31;;;;;;;9.90;9.10;;;3.00;99.90;;;;;;5053097;28;20269;-66
2022/01/05 08:20:57;;;;;;;10.93;9.93;;;3.00;99.90;;;;;;5053250;28;20236;-66
2022/01/05 08:23:23;;;;;;;9.77;9.03;;;3.00;99.90;;;;;;5052175;28;20674;-66
2022/01/05 08:25:50;;;;;;;8.33;7.90;;;3.10;99.90;;;;;;5052746;28;20195;-66
2022/01/05 08:28:17;;;;;;;10.43;9.73;;;3.10;99.90;;;;;;5052815;28;20171;-66
2022/01/05 08:30:46;;;;;;;9.33;8.63;;;3.10;99.90;;;;;;5053274;28;20171;-66
2022/01/05 08:33:13;;;;;;;8.77;8.20;;;3.10;99.90;;;;;;5052295;28;20174;-66
2022/01/05 08:35:39;;;;;;;10.23;9.13;;;3.20;99.90;;;;;;5053069;28;20198;-66
2022/01/05 08:38:05;;;;;;;11.50;10.63;;;3.10;99.90;;;;;;5053006;28;20211;-67
2022/01/05 08:40:33;;;;;;;12.63;11.83;;;3.20;99.90;;;;;;5053188;28;20201;-66
2022/01/05 08:42:59;;;;;;;12.47;11.60;;;3.20;99.90;;;;;;5052344;28;20198;-67
2022/01/05 08:45:25;;;;;;;9.37;8.73;;;3.20;99.90;;;;;;5052768;28;20610;-66
2022/01/05 08:47:53;;;;;;;12.87;10.90;;;3.20;99.90;;;;;;5053154;28;20183;-66
2022/01/05 08:50:23;;;;;;;15.93;10.70;;;3.20;99.90;;;;;;5052762;28;20353;-67
2022/01/05 08:52:49;;;;;;;10.20;9.60;;;3.30;99.90;;;;;;5052479;28;20187;-66
2022/01/05 08:55:18;;;;;;;11.20;10.17;;;3.40;99.90;;;;;;5052782;28;20183;-66
2022/01/05 08:57:44;;;;;;;9.93;9.33;;;3.40;99.90;;;;;;5051509;28;20198;-66
2022/01/05 09:00:11;;;;;;;10.23;9.53;;;3.40;99.90;;;;;;5051657;28;20199;-66
2022/01/05 09:02:37;;;;;;;10.67;9.70;;;3.50;99.90;;;;;;5051074;28;20248;-65
2022/01/05 09:05:05;;;;;;;11.77;10.93;;;3.50;99.90;;;;;;5051945;28;20191;-66
2022/01/05 09:07:31;;;;;;;9.93;9.23;;;3.50;99.90;;;;;;5034296;28;20210;-66
2022/01/05 09:09:56;;;;;;;9.43;8.73;;;3.50;99.90;;;;;;5052600;28;20167;-66
2022/01/05 09:12:22;;;;;;;11.77;9.67;;;3.50;99.90;;;;;;5051695;28;20183;-66
2022/01/05 09:14:48;;;;;;;8.33;7.93;;;3.40;99.90;;;;;;5052357;28;20202;-66
2022/01/05 09:17:14;;;;;;;10.13;9.20;;;3.40;99.90;;;;;;5051439;28;20185;-66
2022/01/05 09:19:39;;;;;;;10.17;9.10;;;3.50;99.90;;;;;;5052459;28;20171;-66
2022/01/05 09:22:05;;;;;;;8.97;8.23;;;3.60;99.90;;;;;;5051837;28;20205;-66
2022/01/05 09:24:32;;;;;;;8.60;7.90;;;3.60;99.90;;;;;;5034502;28;20179;-67
2022/01/05 09:27:03;;;;;;;8.47;7.77;;;3.70;99.90;;;;;;5034215;28;20696;-66
2022/01/05 09:29:29;;;;;;;14.17;8.33;;;3.80;99.90;;;;;;5044750;28;20207;-66
2022/01/05 09:31:55;;;;;;;8.90;8.40;;;3.90;99.90;;;;;;5031865;28;20210;-64
2022/01/05 09:34:21;;;;;;;28.20;9.17;;;4.00;99.90;;;;;;5020441;28;20600;-66
2022/01/05 09:36:51;;;;;;;9.63;8.80;;;4.10;99.90;;;;;;5051672;28;20198;-67
2022/01/05 09:42:05;;;;;;;8.93;8.03;;;4.20;99.90;;;;;;5051483;28;20204;-66
2022/01/05 09:44:33;;;;;;;8.47;7.80;;;4.30;99.90;;;;;;5044509;28;20235;-66
2022/01/05 09:47:02;;;;;;;10.40;9.50;;;4.30;99.90;;;;;;5052266;28;20609;-66
2022/01/05 09:49:32;;;;;;;9.87;8.57;;;4.40;99.90;;;;;;5051331;28;20174;-66
2022/01/05 09:52:03;;;;;;;8.73;8.13;;;4.50;99.90;;;;;;5051154;28;20194;-65
2022/01/05 09:54:29;;;;;;;8.30;7.70;;;4.50;99.90;;;;;;5051724;28;20586;-66
2022/01/05 09:56:56;;;;;;;8.00;7.60;;;4.50;99.90;;;;;;5051226;28;20253;-66
2022/01/05 09:59:23;;;;;;;8.23;7.43;;;4.60;99.90;;;;;;5051411;28;20260;-66
2022/01/05 10:01:49;;;;;;;8.40;7.77;;;4.40;99.90;;;;;;5051188;28;20633;-66
2022/01/05 10:04:16;;;;;;;9.03;8.27;;;4.30;99.90;;;;;;5051105;28;20249;-66
2022/01/05 10:06:42;;;;;;;9.27;8.77;;;4.40;99.90;;;;;;5050430;28;20195;-67
2022/01/05 10:09:08;;;;;;;12.67;8.47;;;4.50;99.90;;;;;;5051353;28;20221;-67
2022/01/05 10:11:35;;;;;;;9.00;8.40;;;4.60;99.90;;;;;;5051014;28;20178;-67
2022/01/05 10:14:01;;;;;;;8.40;7.67;;;4.70;99.90;;;;;;5050907;28;20268;-67
2022/01/05 10:16:26;;;;;;;9.77;9.17;;;4.70;99.90;;;;;;5051049;28;20206;-67
2022/01/05 10:18:52;;;;;;;8.13;7.43;;;4.80;99.90;;;;;;5051384;28;20178;-67
2022/01/05 10:21:18;;;;;;;8.73;7.57;;;4.90;99.90;;;;;;5050945;28;20210;-66
2022/01/05 10:23:52;;;;;;;9.43;8.73;;;5.00;99.90;;;;;;5050776;28;20210;-67
2022/01/05 10:26:23;;;;;;;8.90;8.10;;;5.00;99.90;;;;;;5051282;28;20289;-67
2022/01/05 10:28:50;;;;;;;8.23;7.53;;;4.80;99.90;;;;;;5051200;28;20632;-67
2022/01/05 10:31:17;;;;;;;9.57;8.93;;;4.70;99.90;;;;;;5051050;28;20562;-65
2022/01/05 10:33:43;;;;;;;9.10;7.93;;;4.60;99.90;;;;;;5051171;28;20175;-66
2022/01/05 10:36:09;;;;;;;9.07;8.07;;;4.60;99.90;;;;;;5050783;28;20206;-66
2022/01/05 10:38:35;;;;;;;12.87;8.43;;;4.50;99.90;;;;;;5031371;28;20179;-68
2022/01/05 10:41:17;;;;;;;9.07;8.37;;;4.50;99.90;;;;;;5048682;28;20598;-66
2022/01/05 10:44:20;;;;;;;8.60;7.83;;;4.50;99.90;;;;;;5050437;28;20217;-65
2022/01/05 10:46:56;;;;;;;7.87;7.37;;;4.50;99.90;;;;;;5031259;28;20187;-68
2022/01/05 10:49:27;;;;;;;8.33;7.67;;;4.60;99.90;;;;;;5039577;28;20187;-66
2022/01/05 10:51:54;;;;;;;8.13;7.57;;;4.60;99.90;;;;;;5034924;28;20518;-66
2022/01/05 10:54:22;;;;;;;8.27;7.83;;;4.70;99.90;;;;;;5050417;28;20543;-67
2022/01/05 10:56:48;;;;;;;10.07;8.23;;;4.90;99.90;;;;;;5054708;28;20210;-67
2022/01/05 10:59:14;;;;;;;9.03;8.47;;;4.90;99.90;;;;;;5054479;28;20197;-67
2022/01/05 11:01:41;;;;;;;14.57;7.13;;;5.00;99.90;;;;;;5054807;28;20187;-66
2022/01/05 11:04:18;;;;;;;8.60;7.90;;;5.10;99.90;;;;;;5054111;28;20175;-66
2022/01/05 11:07:03;;;;;;;8.23;7.60;;;5.10;99.90;;;;;;5053865;28;20257;-65
2022/01/05 11:09:32;;;;;;;9.47;8.57;;;5.10;99.90;;;;;;5054085;28;20175;-67
2022/01/05 11:11:59;;;;;;;8.67;7.90;;;5.20;99.90;;;;;;5054053;28;20254;-64
2022/01/05 11:14:31;;;;;;;10.80;9.40;;;5.30;99.90;;;;;;5054162;28;20249;-65
2022/01/05 11:16:59;;;;;;;7.73;7.23;;;5.30;99.90;;;;;;5054527;28;20692;-65
2022/01/05 11:19:29;;;;;;;9.07;8.43;;;5.30;99.90;;;;;;5054272;28;20546;-68
2022/01/05 11:21:55;;;;;;;7.17;6.77;;;5.30;99.90;;;;;;5054125;28;20241;-65
2022/01/05 11:24:23;;;;;;;13.90;9.67;;;5.40;99.90;;;;;;5047590;28;20191;-66
2022/01/05 11:26:49;;;;;;;7.93;7.37;;;5.40;99.90;;;;;;5034154;28;20274;-66
2022/01/05 11:29:15;;;;;;;9.00;7.83;;;5.40;99.90;;;;;;5050764;28;20592;-67
2022/01/05 11:31:41;;;;;;;14.03;7.87;;;5.40;99.90;;;;;;5054561;28;20189;-67
2022/01/05 11:34:07;;;;;;;8.87;8.13;;;5.30;99.90;;;;;;5053432;28;20273;-66
2022/01/05 11:36:33;;;;;;;8.20;7.63;;;5.30;99.90;;;;;;5036301;28;20199;-67
2022/01/05 11:38:59;;;;;;;10.10;9.13;;;5.30;99.90;;;;;;5053853;28;20183;-66
2022/01/05 11:41:25;;;;;;;11.50;10.60;;;5.20;99.90;;;;;;5054194;28;20175;-67
2022/01/05 11:43:51;;;;;;;8.97;8.07;;;5.20;99.90;;;;;;5053505;28;20217;-66
2022/01/05 11:46:19;;;;;;;8.80;7.93;;;5.10;99.90;;;;;;5053883;28;20534;-66
2022/01/05 11:49:24;;;;;;;8.50;7.40;;;5.10;99.90;;;;;;5053660;28;20186;-66
2022/01/05 11:51:52;;;;;;;9.13;8.20;;;5.30;99.90;;;;;;5022237;28;20597;-65
2022/01/05 11:54:20;;;;;;;7.43;7.03;;;5.60;99.90;;;;;;5053485;28;20201;-66
2022/01/05 11:56:48;;;;;;;7.70;7.10;;;5.70;99.90;;;;;;5051583;28;20696;-66
2022/01/05 11:59:35;;;;;;;7.70;7.20;;;5.80;99.90;;;;;;5053272;28;20664;-67
2022/01/05 12:02:21;;;;;;;8.53;7.73;;;6.00;99.90;;;;;;5052763;28;20574;-66
2022/01/05 12:04:56;;;;;;;10.93;7.40;;;6.20;99.90;;;;;;5053613;28;20182;-66
2022/01/05 12:07:34;;;;;;;9.10;7.63;;;6.30;99.90;;;;;;5052505;28;20179;-66
2022/01/05 12:10:00;;;;;;;7.63;7.20;;;6.00;99.90;;;;;;5053325;28;20182;-66
2022/01/05 12:12:30;;;;;;;8.93;8.37;;;5.70;99.90;;;;;;5053021;28;20175;-66
2022/01/05 12:14:56;;;;;;;8.47;7.67;;;5.40;99.90;;;;;;5053225;28;20707;-66
2022/01/05 12:17:23;;;;;;;8.33;7.83;;;5.30;99.90;;;;;;5053332;28;20187;-67
2022/01/05 12:19:49;;;;;;;8.80;8.23;;;5.40;99.90;;;;;;5053423;28;20178;-67
2022/01/05 12:22:18;;;;;;;9.20;7.80;;;5.60;99.90;;;;;;5032939;28;20619;-66
2022/01/05 12:24:53;;;;;;;8.03;7.27;;;5.60;99.90;;;;;;5033349;28;20195;-67
2022/01/05 12:27:33;;;;;;;8.17;7.57;;;5.70;99.90;;;;;;5052921;28;20265;-66
2022/01/05 12:30:00;;;;;;;8.53;7.90;;;6.00;99.90;;;;;;5052842;28;20667;-66
2022/01/05 12:32:34;;;;;;;7.70;7.20;;;6.20;99.90;;;;;;5032883;28;20234;-67
2022/01/05 12:35:06;;;;;;;7.60;7.00;;;6.20;99.90;;;;;;5033047;28;20200;-67
2022/01/05 12:37:48;;;;;;;8.40;7.53;;;6.20;99.90;;;;;;5033131;28;20604;-66
2022/01/05 12:40:32;;;;;;;8.73;8.13;;;6.10;99.90;;;;;;5052673;28;20182;-67
2022/01/05 12:43:06;;;;;;;7.00;6.60;;;5.90;99.90;;;;;;5052440;28;20553;-67
2022/01/05 12:46:03;;;;;;;8.10;7.70;;;5.80;99.90;;;;;;5052785;28;20198;-67
2022/01/05 12:48:32;;;;;;;10.20;9.17;;;5.80;99.90;;;;;;5052825;28;20171;-67
2022/01/05 12:51:20;;;;;;;8.80;8.20;;;5.80;99.90;;;;;;5053330;28;20175;-66
2022/01/05 12:53:53;;;;;;;9.43;7.80;;;5.80;99.90;;;;;;5043836;28;20184;-67
2022/01/05 12:56:26;;;;;;;7.50;7.00;;;5.80;99.90;;;;;;5055663;23;20215;-66
2022/01/05 12:58:53;;;;;;;8.53;7.57;;;5.70;99.90;;;;;;5032592;28;20254;-66